Time;durP1;ratioP1;P1;durP2;ratioP2;P2;SDS_P1;SDS_P2;PMS_P1;PMS_P2;Temp;Humidity;BMP_temperature;BMP_pressure;BME280_temperature;BME280_humidity;BME280_pressure;Samples;Min_cycle;Max_cycle;Signal;HPM_P1;HPM_P2
2022/10/11 00:02:07;;;;;;;8.00;1.30;;;11.80;99.90;;;;;;5050620;28;20197;-74
2022/10/11 00:04:32;;;;;;;8.80;1.77;;;11.80;99.90;;;;;;5032465;28;20538;-74
2022/10/11 00:06:58;;;;;;;8.30;2.00;;;11.80;99.90;;;;;;5053245;28;20169;-74
2022/10/11 00:09:24;;;;;;;6.70;1.80;;;11.80;99.90;;;;;;5053737;28;20189;-75
2022/10/11 00:11:49;;;;;;;3.73;1.10;;;11.70;99.90;;;;;;5050473;28;20645;-74
2022/10/11 00:14:15;;;;;;;9.33;1.67;;;11.70;99.90;;;;;;5032706;28;20268;-74
2022/10/11 00:16:43;;;;;;;4.20;1.20;;;11.70;99.90;;;;;;5050421;28;20209;-74
2022/10/11 00:19:10;;;;;;;9.05;1.88;;;11.70;99.90;;;;;;5050803;28;20684;-75
2022/10/11 00:21:36;;;;;;;6.53;2.00;;;11.60;99.90;;;;;;5050467;28;20281;-75
2022/10/11 00:24:02;;;;;;;8.70;2.37;;;11.60;99.90;;;;;;5032567;28;20248;-74
2022/10/11 00:26:28;;;;;;;7.13;1.50;;;11.60;99.90;;;;;;5016342;28;20975;-74
2022/10/11 00:28:54;;;;;;;4.90;1.43;;;11.60;99.90;;;;;;5054394;28;20265;-74
2022/10/11 00:31:20;;;;;;;6.38;1.90;;;11.50;99.90;;;;;;5036239;28;20656;-74
2022/10/11 00:33:46;;;;;;;10.75;1.80;;;11.50;99.90;;;;;;5053870;28;20264;-74
2022/10/11 00:36:14;;;;;;;5.23;1.50;;;11.50;99.90;;;;;;5036129;28;20276;-75
2022/10/11 00:38:40;;;;;;;6.35;1.58;;;11.50;99.90;;;;;;5054194;28;20576;-75
2022/10/11 00:41:06;;;;;;;6.23;1.40;;;11.50;99.90;;;;;;5054183;28;20189;-75
2022/10/11 00:43:32;;;;;;;6.83;1.80;;;11.40;99.90;;;;;;5054191;28;20571;-75
2022/10/11 00:46:02;;;;;;;5.00;1.60;;;11.40;99.90;;;;;;5058329;28;20267;-75
2022/10/11 00:48:49;;;;;;;6.68;1.50;;;11.40;99.90;;;;;;5053673;28;21133;-74
2022/10/11 00:51:34;;;;;;;7.10;1.50;;;11.30;99.90;;;;;;5035877;28;20675;-74
2022/10/11 00:54:01;;;;;;;3.17;1.30;;;11.30;99.90;;;;;;5053532;28;20176;-74
2022/10/11 00:56:31;;;;;;;5.22;1.30;;;11.30;99.90;;;;;;5053519;28;20204;-75
2022/10/11 00:58:59;;;;;;;3.65;1.20;;;11.30;99.90;;;;;;5053634;28;20165;-75
2022/10/11 01:01:25;;;;;;;9.55;1.35;;;11.20;99.90;;;;;;5053228;28;20204;-74
2022/10/11 01:03:51;;;;;;;6.22;1.35;;;11.20;99.90;;;;;;5053304;28;20157;-74
2022/10/11 01:06:16;;;;;;;5.93;1.30;;;11.20;99.90;;;;;;5053478;28;20173;-75
2022/10/11 01:08:43;;;;;;;4.93;1.37;;;11.10;99.90;;;;;;5035404;28;20169;-74
2022/10/11 01:11:13;;;;;;;8.15;1.83;;;11.20;99.90;;;;;;5053117;28;20595;-74
2022/10/11 01:13:46;;;;;;;4.03;1.30;;;11.10;99.90;;;;;;5053153;28;20272;-74
2022/10/11 01:16:24;;;;;;;11.15;1.83;;;11.10;99.90;;;;;;5035734;28;20203;-75
2022/10/11 01:18:58;;;;;;;4.90;1.38;;;11.10;99.90;;;;;;5053640;28;20169;-75
2022/10/11 01:21:42;;;;;;;5.30;1.70;;;11.10;99.90;;;;;;5063158;28;20190;-74
2022/10/11 01:24:23;;;;;;;5.43;1.40;;;11.10;99.90;;;;;;5052822;28;20169;-75
2022/10/11 01:27:28;;;;;;;6.50;1.83;;;11.00;99.90;;;;;;5053088;28;20615;-74
2022/10/11 01:30:12;;;;;;;7.82;2.90;;;11.00;99.90;;;;;;5035276;28;20228;-75
2022/10/11 01:33:04;;;;;;;7.07;1.65;;;11.00;99.90;;;;;;5052802;28;20193;-74
2022/10/11 01:35:56;;;;;;;5.80;1.67;;;11.00;99.90;;;;;;5052945;28;20170;-75
2022/10/11 01:38:41;;;;;;;5.13;1.98;;;10.90;99.90;;;;;;5034561;28;20169;-75
2022/10/11 01:41:14;;;;;;;5.78;1.65;;;10.90;99.90;;;;;;5052726;28;20185;-75
2022/10/11 01:43:41;;;;;;;5.28;1.60;;;10.90;99.90;;;;;;5034985;28;20176;-75
2022/10/11 01:46:08;;;;;;;8.20;2.85;;;10.90;99.90;;;;;;5052876;28;20633;-75
2022/10/11 01:48:46;;;;;;;8.88;2.33;;;10.90;99.90;;;;;;5034632;28;20176;-75
2022/10/11 01:51:12;;;;;;;4.90;1.60;;;10.80;99.90;;;;;;5034589;28;20293;-76
2022/10/11 01:53:59;;;;;;;5.93;1.80;;;10.80;99.90;;;;;;5052223;28;20161;-75
2022/10/11 01:56:50;;;;;;;4.00;1.58;;;10.80;99.90;;;;;;5052647;28;20206;-75
2022/10/11 01:59:22;;;;;;;5.53;1.65;;;10.80;99.90;;;;;;5057039;28;20525;-75
2022/10/11 02:02:19;;;;;;;7.18;1.58;;;10.80;99.90;;;;;;5052110;28;20824;-75
2022/10/11 02:04:54;;;;;;;6.65;1.88;;;10.80;99.90;;;;;;5034082;28;20177;-75
2022/10/11 02:07:43;;;;;;;7.90;1.77;;;10.80;99.90;;;;;;5052357;28;20176;-75
2022/10/11 02:10:23;;;;;;;5.95;1.50;;;10.70;99.90;;;;;;5052324;28;20173;-74
2022/10/11 02:12:56;;;;;;;5.53;1.65;;;10.70;99.90;;;;;;5051701;28;20177;-74
2022/10/11 02:15:26;;;;;;;6.22;1.95;;;10.70;99.90;;;;;;5051647;28;20557;-75
2022/10/11 02:17:56;;;;;;;6.30;1.80;;;10.70;99.90;;;;;;5038654;28;20228;-74
2022/10/11 02:20:26;;;;;;;6.45;1.88;;;10.70;99.90;;;;;;5014575;28;20606;-74
2022/10/11 02:22:59;;;;;;;6.90;1.98;;;10.70;99.90;;;;;;5031915;28;20227;-74
2022/10/11 02:25:28;;;;;;;9.43;2.00;;;10.60;99.90;;;;;;5031904;28;20184;-74
2022/10/11 02:27:59;;;;;;;6.07;1.77;;;10.60;99.90;;;;;;5031847;28;20178;-75
2022/10/11 02:30:25;;;;;;;8.48;2.75;;;10.60;99.90;;;;;;4998193;28;20173;-74
2022/10/11 02:32:53;;;;;;;10.60;1.80;;;10.60;99.90;;;;;;5031499;28;20170;-75
2022/10/11 02:35:23;;;;;;;7.53;1.80;;;10.60;99.90;;;;;;5014493;28;20198;-75
2022/10/11 02:37:57;;;;;;;5.53;2.10;;;10.60;99.90;;;;;;5033871;28;20597;-75
2022/10/11 02:40:29;;;;;;;9.10;2.85;;;10.60;99.90;;;;;;5014232;28;20535;-75
2022/10/11 02:43:06;;;;;;;6.22;1.73;;;10.60;99.90;;;;;;5031561;28;20170;-75
2022/10/11 02:45:38;;;;;;;7.63;2.10;;;10.60;99.90;;;;;;5031489;28;20161;-75
2022/10/11 02:48:06;;;;;;;7.45;2.95;;;10.60;99.90;;;;;;5031808;28;20184;-75
2022/10/11 02:50:32;;;;;;;8.57;2.60;;;10.50;99.90;;;;;;5031189;28;20166;-75
2022/10/11 02:52:58;;;;;;;7.80;2.80;;;10.50;99.90;;;;;;5031317;28;20227;-75
2022/10/11 02:55:23;;;;;;;5.23;2.77;;;10.50;99.90;;;;;;5031058;28;20584;-74
2022/10/11 02:57:49;;;;;;;7.27;3.30;;;10.50;99.90;;;;;;5031448;28;20526;-75
2022/10/11 03:00:15;;;;;;;8.97;3.00;;;10.50;99.90;;;;;;5031044;28;20273;-74
2022/10/11 03:02:41;;;;;;;5.17;2.87;;;10.50;99.90;;;;;;5031095;28;20567;-75
2022/10/11 03:05:07;;;;;;;7.20;2.60;;;10.50;99.90;;;;;;5013453;28;20552;-75
2022/10/11 03:07:33;;;;;;;5.70;2.67;;;10.50;99.90;;;;;;5031457;28;20209;-75
2022/10/11 03:09:59;;;;;;;12.17;3.60;;;10.50;99.90;;;;;;5013454;28;20641;-75
2022/10/11 03:12:24;;;;;;;7.67;2.63;;;10.50;99.90;;;;;;5031347;28;20194;-74
2022/10/11 03:14:51;;;;;;;7.07;2.60;;;10.50;99.90;;;;;;5034981;28;20822;-74
2022/10/11 03:17:17;;;;;;;4.45;2.38;;;10.50;99.90;;;;;;5031208;28;20531;-74
2022/10/11 03:19:43;;;;;;;12.13;2.73;;;10.50;99.90;;;;;;5031071;28;20481;-75
2022/10/11 03:22:09;;;;;;;10.87;3.60;;;10.50;99.90;;;;;;4997070;28;21144;-74
2022/10/11 03:24:35;;;;;;;11.85;2.97;;;10.50;99.90;;;;;;5030739;28;20161;-75
2022/10/11 03:27:01;;;;;;;7.30;2.60;;;10.40;99.90;;;;;;5031088;28;20177;-75
2022/10/11 03:29:26;;;;;;;7.03;2.83;;;10.40;99.90;;;;;;5031219;28;20165;-74
2022/10/11 03:31:52;;;;;;;5.33;2.00;;;10.40;99.90;;;;;;5030875;28;20204;-74
2022/10/11 03:34:18;;;;;;;9.23;3.07;;;10.40;99.90;;;;;;5013222;28;20177;-74
2022/10/11 03:36:43;;;;;;;6.50;2.93;;;10.40;99.90;;;;;;5013191;28;20616;-74
2022/10/11 03:39:09;;;;;;;6.37;3.13;;;10.40;99.90;;;;;;5031100;28;20261;-74
2022/10/11 03:41:35;;;;;;;9.53;2.67;;;10.40;99.90;;;;;;5030835;28;20209;-75
2022/10/11 03:44:00;;;;;;;7.40;2.70;;;10.40;99.90;;;;;;5030797;28;20304;-74
2022/10/11 03:46:26;;;;;;;9.37;3.33;;;10.30;99.90;;;;;;5030979;28;20260;-74
2022/10/11 03:48:52;;;;;;;7.10;3.20;;;10.30;99.90;;;;;;5031015;28;20251;-75
2022/10/11 03:51:18;;;;;;;6.03;2.60;;;10.30;99.90;;;;;;5034464;28;20193;-74
2022/10/11 03:53:43;;;;;;;7.47;3.23;;;10.30;99.90;;;;;;5013132;28;20223;-74
2022/10/11 03:56:09;;;;;;;4.63;2.80;;;10.20;99.90;;;;;;5030843;28;20229;-75
2022/10/11 03:58:35;;;;;;;4.93;2.80;;;10.20;99.90;;;;;;5030521;28;20244;-74
2022/10/11 04:01:01;;;;;;;9.73;4.00;;;10.20;99.90;;;;;;5012603;28;20213;-74
2022/10/11 04:03:26;;;;;;;13.80;4.63;;;10.20;99.90;;;;;;5033420;28;20634;-74
2022/10/11 04:05:52;;;;;;;8.40;2.70;;;10.20;99.90;;;;;;5016911;28;20522;-75
2022/10/11 04:08:18;;;;;;;8.10;3.60;;;10.20;99.90;;;;;;5034567;28;20174;-75
2022/10/11 04:10:43;;;;;;;5.50;2.70;;;10.20;99.90;;;;;;5034391;28;20190;-74
2022/10/11 04:13:10;;;;;;;6.07;2.97;;;10.10;99.90;;;;;;5016687;28;20506;-75
2022/10/11 04:15:37;;;;;;;5.10;2.40;;;10.20;99.90;;;;;;5033992;28;20259;-74
2022/10/11 04:18:04;;;;;;;9.45;4.05;;;10.10;99.90;;;;;;5016519;28;20200;-75
2022/10/11 04:20:30;;;;;;;8.43;3.60;;;10.10;99.90;;;;;;5034139;28;20177;-74
2022/10/11 04:22:56;;;;;;;10.67;3.70;;;10.10;99.90;;;;;;5034072;28;20166;-75
2022/10/11 04:25:22;;;;;;;12.37;3.87;;;10.10;99.90;;;;;;5034131;28;20610;-74
2022/10/11 04:27:47;;;;;;;12.38;4.25;;;10.10;99.90;;;;;;5037157;28;20162;-75
2022/10/11 04:30:15;;;;;;;13.10;4.60;;;10.10;99.90;;;;;;5034053;28;20175;-74
2022/10/11 04:32:41;;;;;;;13.57;4.43;;;10.00;99.90;;;;;;5033722;28;20173;-75
2022/10/11 04:35:07;;;;;;;11.90;4.32;;;10.10;99.90;;;;;;5033633;28;20176;-74
2022/10/11 04:37:33;;;;;;;9.77;3.92;;;10.00;99.90;;;;;;5033898;28;20190;-75
2022/10/11 04:39:58;;;;;;;8.50;4.70;;;10.10;99.90;;;;;;5015989;28;20212;-75
2022/10/11 04:42:24;;;;;;;5.40;3.33;;;10.10;99.90;;;;;;5016051;28;20572;-75
2022/10/11 04:44:50;;;;;;;8.30;3.27;;;10.00;99.90;;;;;;5015957;28;20696;-74
2022/10/11 04:47:15;;;;;;;8.33;2.90;;;10.10;99.90;;;;;;5016165;28;20223;-75
2022/10/11 04:49:41;;;;;;;7.70;4.17;;;10.00;99.90;;;;;;5016220;28;20264;-75
2022/10/11 04:52:07;;;;;;;10.50;3.93;;;10.00;99.90;;;;;;5033510;28;20186;-74
2022/10/11 04:54:33;;;;;;;11.40;4.80;;;10.00;99.90;;;;;;5033228;28;20169;-74
2022/10/11 04:56:58;;;;;;;9.17;3.57;;;10.00;99.90;;;;;;5015930;28;20615;-74
2022/10/11 04:59:24;;;;;;;8.53;4.00;;;10.00;99.90;;;;;;5033817;28;20197;-75
2022/10/11 05:01:50;;;;;;;8.33;3.90;;;10.00;99.90;;;;;;4999375;28;20283;-75
2022/10/11 05:04:16;;;;;;;11.50;4.33;;;10.00;99.90;;;;;;5019679;28;20698;-75
2022/10/11 05:06:41;;;;;;;12.23;4.47;;;10.00;99.90;;;;;;5034683;28;20224;-75
2022/10/11 05:09:07;;;;;;;11.50;4.93;;;10.00;99.90;;;;;;5033847;28;20568;-75
2022/10/11 05:11:33;;;;;;;7.40;3.77;;;10.10;99.90;;;;;;5033238;28;20200;-75
2022/10/11 05:13:59;;;;;;;8.77;4.03;;;10.10;99.90;;;;;;5014444;28;20174;-75
2022/10/11 05:16:24;;;;;;;10.03;3.90;;;10.10;99.90;;;;;;5015537;28;20228;-75
2022/10/11 05:18:50;;;;;;;10.27;4.27;;;10.20;99.90;;;;;;5033316;28;20950;-75
2022/10/11 05:21:24;;;;;;;9.27;3.73;;;10.30;99.90;;;;;;5033173;28;20178;-75
2022/10/11 05:23:52;;;;;;;9.90;3.80;;;10.30;99.90;;;;;;5033076;28;20192;-76
2022/10/11 05:26:19;;;;;;;7.60;4.10;;;10.40;99.90;;;;;;5015462;28;20162;-75
2022/10/11 05:28:45;;;;;;;6.97;3.85;;;10.50;99.90;;;;;;5033118;28;20574;-75
2022/10/11 05:31:12;;;;;;;6.95;2.80;;;10.60;99.90;;;;;;5033086;28;20202;-75
2022/10/11 05:33:38;;;;;;;7.20;3.05;;;10.70;99.90;;;;;;5032750;28;20536;-75
2022/10/11 05:36:04;;;;;;;6.10;2.60;;;10.80;99.90;;;;;;5032777;28;20613;-75
2022/10/11 05:38:30;;;;;;;9.48;3.53;;;10.80;99.90;;;;;;5032940;28;20181;-75
2022/10/11 05:41:01;;;;;;;12.13;5.03;;;10.80;99.90;;;;;;5033194;28;20537;-75
2022/10/11 05:43:27;;;;;;;13.35;4.93;;;10.80;99.90;;;;;;5036550;28;20672;-75
2022/10/11 05:45:54;;;;;;;14.52;5.35;;;10.80;99.90;;;;;;5032843;28;20261;-75
2022/10/11 05:48:20;;;;;;;15.40;6.25;;;10.80;99.90;;;;;;5032155;28;20170;-75
2022/10/11 05:50:46;;;;;;;24.77;7.70;;;10.80;99.90;;;;;;5014784;28;20205;-75
2022/10/11 05:53:12;;;;;;;20.13;8.63;;;10.90;99.90;;;;;;5014792;28;20262;-75
2022/10/11 05:55:39;;;;;;;18.50;7.25;;;10.90;99.90;;;;;;5032217;28;20177;-76
2022/10/11 05:58:06;;;;;;;21.05;8.90;;;10.90;99.90;;;;;;5014045;28;20663;-75
2022/10/11 06:00:35;;;;;;;23.63;8.40;;;11.00;99.90;;;;;;5030978;28;20177;-75
2022/10/11 06:03:01;;;;;;;21.55;10.50;;;11.00;99.90;;;;;;5036731;28;20223;-75
2022/10/11 06:05:27;;;;;;;20.47;9.93;;;11.00;99.90;;;;;;5034706;28;20197;-75
2022/10/11 06:07:53;;;;;;;30.00;10.15;;;11.10;99.90;;;;;;5032579;28;20750;-74
2022/10/11 06:10:18;;;;;;;20.70;10.33;;;11.10;99.90;;;;;;5032362;28;20173;-75
2022/10/11 06:12:44;;;;;;;33.43;10.30;;;11.10;99.90;;;;;;5014612;28;20615;-75
2022/10/11 06:15:10;;;;;;;19.83;9.03;;;11.10;99.90;;;;;;5031956;28;20165;-75
2022/10/11 06:17:36;;;;;;;22.33;9.60;;;11.10;99.90;;;;;;5031230;28;20750;-76
2022/10/11 06:20:03;;;;;;;26.83;11.98;;;11.10;99.90;;;;;;5036714;28;20570;-76
2022/10/11 06:22:29;;;;;;;20.70;10.68;;;11.20;99.90;;;;;;5032094;28;20182;-75
2022/10/11 06:24:55;;;;;;;18.53;9.97;;;11.30;99.90;;;;;;5031144;28;20231;-75
2022/10/11 06:27:21;;;;;;;25.00;11.83;;;11.30;99.90;;;;;;5031827;28;20178;-75
2022/10/11 06:29:46;;;;;;;24.27;11.60;;;11.30;99.90;;;;;;5014093;28;20162;-75
2022/10/11 06:32:12;;;;;;;29.80;12.80;;;11.40;99.90;;;;;;5039180;28;20255;-75
2022/10/11 06:34:38;;;;;;;23.13;12.33;;;11.40;99.90;;;;;;5050456;28;20185;-75
2022/10/11 06:37:04;;;;;;;27.73;12.97;;;11.50;99.90;;;;;;5048380;28;20267;-76
2022/10/11 06:39:29;;;;;;;27.00;12.27;;;11.50;99.90;;;;;;5041228;28;20692;-75
2022/10/11 06:41:55;;;;;;;23.27;11.97;;;11.60;99.90;;;;;;5033780;28;20197;-75
2022/10/11 06:44:21;;;;;;;25.55;13.13;;;11.70;99.90;;;;;;5033777;28;20173;-75
2022/10/11 06:46:47;;;;;;;28.47;14.77;;;11.70;99.90;;;;;;5051817;28;20729;-75
2022/10/11 06:49:13;;;;;;;33.23;15.10;;;11.80;99.90;;;;;;5033979;28;20299;-75
2022/10/11 06:51:39;;;;;;;26.00;14.40;;;11.90;99.90;;;;;;5051648;28;20614;-75
2022/10/11 06:54:05;;;;;;;28.87;14.83;;;12.00;99.90;;;;;;5051438;28;20268;-75
2022/10/11 06:56:31;;;;;;;31.03;15.67;;;12.10;99.90;;;;;;5034021;28;20626;-76
2022/10/11 06:58:58;;;;;;;30.35;16.90;;;12.10;99.90;;;;;;5043568;28;20169;-75
2022/10/11 07:01:25;;;;;;;26.98;15.23;;;12.20;99.90;;;;;;5051724;28;20205;-75
2022/10/11 07:03:52;;;;;;;28.23;15.80;;;12.20;99.90;;;;;;5053746;22;20274;-81
2022/10/11 07:06:24;;;;;;;33.17;17.33;;;12.20;99.90;;;;;;5046945;28;20169;-84
2022/10/11 07:08:50;;;;;;;28.42;18.17;;;12.30;99.90;;;;;;5055551;28;20208;-84
2022/10/11 07:11:18;;;;;;;32.97;19.10;;;12.30;99.90;;;;;;5038630;28;20181;-83
2022/10/11 07:13:53;;;;;;;31.20;20.23;;;12.20;99.90;;;;;;5051186;28;20599;-83
2022/10/11 07:16:20;;;;;;;35.15;20.67;;;12.30;99.90;;;;;;5029996;28;20213;-83
2022/10/11 07:18:47;;;;;;;29.63;20.65;;;12.30;99.90;;;;;;5032041;28;20200;-84
2022/10/11 07:21:14;;;;;;;36.03;21.35;;;12.30;99.90;;;;;;5030661;28;20280;-83
2022/10/11 07:23:41;;;;;;;35.33;20.35;;;12.30;99.90;;;;;;5027761;28;20248;-82
2022/10/11 07:26:08;;;;;;;29.30;17.42;;;12.40;99.90;;;;;;5027942;28;20181;-82
2022/10/11 07:28:35;;;;;;;32.47;18.77;;;12.40;99.90;;;;;;5027287;28;20201;-82
2022/10/11 07:31:18;;;;;;;28.02;18.38;;;12.50;99.90;;;;;;5049630;28;20187;-82
2022/10/11 07:33:45;;;;;;;35.00;20.00;;;12.50;99.90;;;;;;5031542;28;20192;-83
2022/10/11 07:36:12;;;;;;;32.10;19.20;;;12.60;99.90;;;;;;5041457;28;20224;-83
2022/10/11 07:38:39;;;;;;;30.08;20.83;;;12.70;99.90;;;;;;5032199;28;20177;-83
2022/10/11 07:41:05;;;;;;;41.70;21.75;;;12.80;99.90;;;;;;5052133;28;20184;-82
2022/10/11 07:43:31;;;;;;;34.03;23.07;;;12.80;99.90;;;;;;5037936;28;20200;-83
2022/10/11 07:46:02;;;;;;;33.83;21.50;;;12.90;99.90;;;;;;5055475;28;20630;-83
2022/10/11 07:48:31;;;;;;;35.67;25.17;;;12.90;99.90;;;;;;5054024;28;20599;-82
2022/10/11 07:51:10;;;;;;;39.78;23.60;;;13.00;99.90;;;;;;5029717;28;20181;-82
2022/10/11 07:54:02;;;;;;;38.65;25.00;;;13.00;99.90;;;;;;5036887;28;20197;-82
2022/10/11 07:56:28;;;;;;;35.50;21.17;;;13.00;99.90;;;;;;5035903;28;20271;-81
2022/10/11 07:58:59;;;;;;;34.78;22.33;;;13.00;99.90;;;;;;5051248;28;20613;-82
2022/10/11 08:01:26;;;;;;;40.55;22.67;;;13.00;99.90;;;;;;5035069;28;20193;-82
2022/10/11 08:03:52;;;;;;;34.20;21.27;;;13.00;99.90;;;;;;5033281;28;20212;-82
2022/10/11 08:06:20;;;;;;;36.47;22.40;;;13.10;99.90;;;;;;5050610;28;20170;-83
2022/10/11 08:08:47;;;;;;;32.95;20.80;;;13.00;99.90;;;;;;5034157;28;20184;-82
2022/10/11 08:11:30;;;;;;;31.80;21.73;;;13.10;99.90;;;;;;5037385;28;20239;-82
2022/10/11 08:13:56;;;;;;;34.05;22.83;;;13.10;99.90;;;;;;5061304;28;20236;-81
2022/10/11 08:16:23;;;;;;;32.97;22.30;;;13.20;99.90;;;;;;5041973;28;20205;-82
2022/10/11 08:18:49;;;;;;;31.73;22.20;;;13.20;99.90;;;;;;5043935;28;20517;-81
2022/10/11 08:21:16;;;;;;;30.13;20.90;;;13.20;99.90;;;;;;5036197;28;20178;-81
2022/10/11 08:23:42;;;;;;;32.05;23.33;;;13.10;99.90;;;;;;5040617;28;20645;-80
2022/10/11 08:26:08;;;;;;;28.70;20.30;;;13.10;99.90;;;;;;5047210;28;20169;-81
2022/10/11 08:28:34;;;;;;;27.98;19.80;;;13.10;99.90;;;;;;5045131;28;20568;-81
2022/10/11 08:31:01;;;;;;;31.13;20.15;;;13.20;99.90;;;;;;5045694;28;20177;-81
2022/10/11 08:33:26;;;;;;;29.30;20.95;;;13.20;99.90;;;;;;5035550;28;20285;-81
2022/10/11 08:35:53;;;;;;;27.13;17.98;;;13.00;99.90;;;;;;5039529;28;20181;-81
2022/10/11 08:38:20;;;;;;;30.90;21.02;;;13.00;99.90;;;;;;5059842;28;20256;-80
2022/10/11 08:40:50;;;;;;;24.58;18.73;;;13.00;99.90;;;;;;5049789;28;20192;-81
2022/10/11 08:43:49;;;;;;;36.05;21.63;;;13.10;99.90;;;;;;5060998;28;20170;-80
2022/10/11 08:46:20;;;;;;;30.25;18.35;;;13.00;99.90;;;;;;5037794;28;20239;-81
2022/10/11 08:48:49;;;;;;;28.05;18.80;;;13.10;99.90;;;;;;5034261;28;20205;-81
2022/10/11 08:51:19;;;;;;;41.42;22.23;;;13.00;99.90;;;;;;5032833;28;20571;-82
2022/10/11 08:53:52;;;;;;;26.95;18.23;;;13.00;99.90;;;;;;5034050;28;20276;-81
2022/10/11 08:56:20;;;;;;;28.08;20.13;;;13.10;99.90;;;;;;5036982;28;20201;-82
2022/10/11 08:59:02;;;;;;;32.58;21.70;;;13.20;99.90;;;;;;5041891;28;20150;-81
2022/10/11 09:01:30;;;;;;;33.55;20.85;;;13.30;99.90;;;;;;5059247;28;20203;-80
2022/10/11 09:03:58;;;;;;;33.22;19.77;;;13.40;99.90;;;;;;5041026;28;20197;-80
2022/10/11 09:06:49;;;;;;;33.03;20.38;;;13.60;99.90;;;;;;5052677;28;20185;-80
2022/10/11 09:09:33;;;;;;;27.48;19.02;;;13.60;99.90;;;;;;5018935;28;20620;-80
2022/10/11 09:12:31;;;;;;;46.85;23.17;;;13.90;99.90;;;;;;5018185;28;20177;-80
2022/10/11 09:15:02;;;;;;;28.47;19.53;;;14.00;99.90;;;;;;5033303;28;20208;-80
2022/10/11 09:17:44;;;;;;;28.80;20.83;;;14.20;99.90;;;;;;5041704;28;20727;-81
2022/10/11 09:20:43;;;;;;;31.80;20.03;;;14.30;99.90;;;;;;5024102;28;20584;-81
2022/10/11 09:23:28;;;;;;;31.10;20.47;;;14.50;99.90;;;;;;5018764;28;20573;-81
2022/10/11 09:26:00;;;;;;;30.50;19.70;;;14.80;99.90;;;;;;5021377;28;20594;-82
2022/10/11 09:28:53;;;;;;;28.20;19.60;;;15.00;99.90;;;;;;5036891;28;20178;-83
2022/10/11 09:31:21;;;;;;;30.47;20.57;;;15.40;99.90;;;;;;5032126;28;20638;-83
2022/10/11 09:33:51;;;;;;;28.27;18.83;;;15.60;99.90;;;;;;5036157;28;20606;-82
2022/10/11 09:37:01;;;;;;;32.20;21.43;;;15.70;99.90;;;;;;5052886;28;20622;-83
2022/10/11 09:39:34;;;;;;;26.40;18.57;;;15.80;99.90;;;;;;4988044;28;21149;-83
2022/10/11 09:42:01;;;;;;;39.00;19.83;;;16.00;99.90;;;;;;5031448;28;20588;-83
2022/10/11 09:44:31;;;;;;;25.83;18.70;;;16.10;99.90;;;;;;5040826;28;21467;-82
2022/10/11 09:46:57;;;;;;;29.30;19.17;;;16.20;99.90;;;;;;5046524;28;20637;-82
2022/10/11 09:49:37;;;;;;;33.73;19.13;;;16.20;99.90;;;;;;5045136;28;20580;-83
2022/10/11 09:52:09;;;;;;;31.87;20.23;;;16.20;99.90;;;;;;5051242;28;20602;-84
2022/10/11 09:54:39;;;;;;;25.90;18.07;;;16.10;99.90;;;;;;5052593;28;20642;-84
2022/10/11 09:57:05;;;;;;;25.20;19.23;;;16.10;99.90;;;;;;5037161;28;20627;-83
2022/10/11 09:59:34;;;;;;;32.23;17.17;;;16.10;99.90;;;;;;5027594;28;20933;-83
2022/10/11 10:02:19;;;;;;;25.03;17.87;;;16.30;99.90;;;;;;5052463;28;20716;-84
2022/10/11 10:04:54;;;;;;;27.70;16.87;;;16.60;99.90;;;;;;5052297;28;20651;-83
2022/10/11 10:07:20;;;;;;;22.30;15.70;;;17.10;99.90;;;;;;5052292;28;20563;-84
2022/10/11 10:09:46;;;;;;;27.17;17.97;;;17.70;99.90;;;;;;5034802;28;20696;-84
2022/10/11 10:12:18;;;;;;;23.30;16.67;;;18.20;99.90;;;;;;5051988;28;20663;-84
2022/10/11 10:14:58;;;;;;;23.50;16.93;;;18.40;99.90;;;;;;5052080;28;20761;-84
2022/10/11 10:17:24;;;;;;;23.23;18.47;;;18.70;99.90;;;;;;5053403;28;20619;-84
2022/10/11 10:19:53;;;;;;;25.77;17.00;;;19.10;99.90;;;;;;5032982;28;20711;-84
2022/10/11 10:22:27;;;;;;;31.03;22.73;;;19.40;99.90;;;;;;5034726;28;20817;-83
2022/10/11 10:24:55;;;;;;;25.83;18.80;;;20.00;99.90;;;;;;5024783;28;20673;-82
2022/10/11 10:27:21;;;;;;;24.23;16.03;;;20.30;99.90;;;;;;5031034;28;20616;-84
2022/10/11 10:30:15;;;;;;;26.93;19.80;;;20.70;99.90;;;;;;5030919;28;20596;-83
2022/10/11 10:33:02;;;;;;;21.87;17.20;;;21.10;99.90;;;;;;5040938;28;20193;-82
2022/10/11 10:35:29;;;;;;;22.53;18.20;;;21.50;99.90;;;;;;5023623;28;20638;-83
2022/10/11 10:38:11;;;;;;;23.20;16.57;;;21.90;99.90;;;;;;5027465;28;20685;-82
2022/10/11 10:40:45;;;;;;;19.50;16.00;;;22.30;99.90;;;;;;5030158;28;20916;-82
2022/10/11 10:43:14;;;;;;;20.90;17.10;;;22.80;99.90;;;;;;5034011;28;21102;-83
2022/10/11 10:46:14;;;;;;;21.33;15.67;;;23.20;99.90;;;;;;5020365;28;20675;-82
2022/10/11 10:48:49;;;;;;;21.00;15.20;;;23.60;99.90;;;;;;5025185;28;20586;-83
2022/10/11 10:51:27;;;;;;;19.60;15.73;;;24.10;99.90;;;;;;5027394;28;20673;-83
2022/10/11 10:54:09;;;;;;;17.03;13.40;;;24.30;99.90;;;;;;5037031;28;20966;-82
2022/10/11 10:56:50;;;;;;;21.20;15.17;;;24.40;99.90;;;;;;5032456;28;21201;-82
2022/10/11 10:59:43;;;;;;;17.23;12.70;;;24.30;99.90;;;;;;5044039;28;20581;-82
2022/10/11 11:02:11;;;;;;;17.23;13.37;;;24.30;99.90;;;;;;5043727;28;20573;-83
2022/10/11 11:04:37;;;;;;;13.90;11.50;;;24.20;99.90;;;;;;5037094;28;20628;-83
2022/10/11 11:07:36;;;;;;;19.57;14.07;;;24.10;99.90;;;;;;5039551;28;20587;-83
2022/10/11 11:10:11;;;;;;;18.93;11.57;;;24.10;99.90;;;;;;5046978;28;20670;-84
2022/10/11 11:13:05;;;;;;;17.40;12.57;;;24.20;99.90;;;;;;5045878;28;20595;-83
2022/10/11 11:15:45;;;;;;;14.33;11.97;;;24.40;99.90;;;;;;5045800;28;20624;-83
2022/10/11 11:18:27;;;;;;;13.40;10.90;;;24.60;99.30;;;;;;5047142;28;20645;-83
2022/10/11 11:21:14;;;;;;;16.73;11.90;;;24.90;99.70;;;;;;5050614;28;20575;-82
2022/10/11 11:24:12;;;;;;;18.43;12.23;;;25.10;99.40;;;;;;5045476;28;20618;-81
2022/10/11 11:26:58;;;;;;;13.53;9.23;;;24.90;95.80;;;;;;5020280;28;21069;-82
2022/10/11 11:29:56;;;;;;;14.60;9.93;;;24.90;96.70;;;;;;5034947;28;20627;-83
2022/10/11 11:32:33;;;;;;;14.03;8.20;;;24.90;95.50;;;;;;5048916;28;20580;-82
2022/10/11 11:35:32;;;;;;;12.23;8.50;;;24.80;95.70;;;;;;5039548;28;20722;-82
2022/10/11 11:38:28;;;;;;;9.70;6.70;;;24.70;95.00;;;;;;5027527;28;20739;-82
2022/10/11 11:41:01;;;;;;;8.90;5.90;;;24.50;93.80;;;;;;5032515;28;20675;-81
2022/10/11 11:43:33;;;;;;;12.07;6.70;;;24.50;94.50;;;;;;5035304;28;20621;-83
2022/10/11 11:46:08;;;;;;;10.20;6.10;;;24.50;93.60;;;;;;5049275;28;20625;-82
2022/10/11 11:48:34;;;;;;;10.93;5.70;;;24.30;93.30;;;;;;5028453;28;21269;-83
2022/10/11 11:51:14;;;;;;;9.47;5.60;;;24.10;92.60;;;;;;5037273;28;20639;-84
2022/10/11 11:53:47;;;;;;;12.60;7.20;;;23.90;91.80;;;;;;5033004;28;20622;-82
2022/10/11 11:56:46;;;;;;;9.37;6.80;;;23.60;91.40;;;;;;5021762;28;20682;-82
2022/10/11 11:59:34;;;;;;;9.90;6.50;;;23.40;91.80;;;;;;5034335;28;20634;-83
2022/10/11 12:02:14;;;;;;;8.60;5.83;;;23.10;90.90;;;;;;5031798;28;20576;-83
2022/10/11 12:04:44;;;;;;;10.40;4.67;;;22.80;91.00;;;;;;5032000;28;20615;-83
2022/10/11 12:07:16;;;;;;;11.07;5.33;;;22.70;92.20;;;;;;5034341;28;20608;-83
2022/10/11 12:09:49;;;;;;;10.60;6.30;;;22.70;92.30;;;;;;5030362;28;20568;-83
2022/10/11 12:12:34;;;;;;;6.93;3.80;;;22.80;93.10;;;;;;5030844;28;20667;-82
2022/10/11 12:15:36;;;;;;;7.43;3.80;;;22.80;90.70;;;;;;5032516;28;20622;-83
2022/10/11 12:18:10;;;;;;;5.30;2.43;;;22.70;91.30;;;;;;4932864;29;20660;-83
2022/10/11 12:20:39;;;;;;;8.47;3.70;;;22.60;90.80;;;;;;4998548;28;20679;-83
2022/10/11 12:23:30;;;;;;;8.97;3.63;;;22.50;89.50;;;;;;5012527;28;20573;-83
2022/10/11 12:26:14;;;;;;;7.43;2.40;;;22.20;88.20;;;;;;5018096;28;20648;-84
2022/10/11 12:28:40;;;;;;;7.77;2.50;;;21.90;83.30;;;;;;5013533;28;20987;-84
2022/10/11 12:31:28;;;;;;;8.20;3.27;;;21.70;84.50;;;;;;5021703;28;20595;-83
2022/10/11 12:34:19;;;;;;;10.20;3.17;;;21.30;84.20;;;;;;5032659;28;20616;-86
2022/10/11 12:36:49;;;;;;;5.70;2.50;;;21.00;83.60;;;;;;5034124;28;20628;-83
2022/10/11 12:39:18;;;;;;;13.13;6.90;;;20.80;84.20;;;;;;5032768;28;20575;-82
2022/10/11 12:41:50;;;;;;;7.10;3.60;;;20.60;83.90;;;;;;5032678;28;20936;-83
2022/10/11 12:44:25;;;;;;;6.93;2.53;;;20.40;84.10;;;;;;5035571;28;20612;-83
2022/10/11 12:46:54;;;;;;;5.27;1.90;;;20.10;84.00;;;;;;5034238;28;20691;-84
2022/10/11 12:49:25;;;;;;;11.97;2.50;;;20.00;84.60;;;;;;5034004;28;21199;-83
2022/10/11 12:52:03;;;;;;;4.97;1.73;;;19.80;84.80;;;;;;5029102;28;20597;-83
2022/10/11 12:55:06;;;;;;;4.20;1.70;;;19.70;85.30;;;;;;5012772;28;20601;-84
2022/10/11 12:57:49;;;;;;;14.37;3.07;;;19.60;86.10;;;;;;5014221;28;20635;-85
2022/10/11 13:00:22;;;;;;;7.33;2.57;;;19.50;86.40;;;;;;5015327;28;20569;-83
2022/10/11 13:02:49;;;;;;;6.70;2.77;;;19.40;86.90;;;;;;5017468;28;20613;-83